sensor_id;sensor_type;location;lat;lon;timestamp;pressure;altitude;pressure_sealevel;temperature;humidity
64521;BME280;50896;46.714;17.322;2024-02-14T00:00:39;101077.69;;;3.54;100.00
64521;BME280;50896;46.714;17.322;2024-02-14T00:03:08;101085.25;;;3.46;100.00
64521;BME280;50896;46.714;17.322;2024-02-14T00:05:34;101087.47;;;3.52;100.00
64521;BME280;50896;46.714;17.322;2024-02-14T00:08:01;101085.25;;;3.46;100.00
64521;BME280;50896;46.714;17.322;2024-02-14T00:10:30;101073.88;;;3.46;100.00
64521;BME280;50896;46.714;17.322;2024-02-14T00:12:56;101086.63;;;3.52;100.00
64521;BME280;50896;46.714;17.322;2024-02-14T00:15:23;101084.59;;;3.42;100.00
64521;BME280;50896;46.714;17.322;2024-02-14T00:17:51;101086.97;;;3.33;100.00
64521;BME280;50896;46.714;17.322;2024-02-14T00:20:18;101082.66;;;3.32;100.00
64521;BME280;50896;46.714;17.322;2024-02-14T00:22:46;101096.09;;;3.27;100.00
64521;BME280;50896;46.714;17.322;2024-02-14T00:25:14;101085.59;;;3.27;100.00
64521;BME280;50896;46.714;17.322;2024-02-14T00:27:45;101081.88;;;3.17;100.00
64521;BME280;50896;46.714;17.322;2024-02-14T00:30:12;101094.81;;;3.20;100.00
64521;BME280;50896;46.714;17.322;2024-02-14T00:32:39;101097.78;;;3.28;100.00
64521;BME280;50896;46.714;17.322;2024-02-14T00:35:07;101108.31;;;3.28;100.00
64521;BME280;50896;46.714;17.322;2024-02-14T00:37:34;101109.69;;;3.34;100.00
64521;BME280;50896;46.714;17.322;2024-02-14T00:40:01;101113.91;;;3.36;100.00
64521;BME280;50896;46.714;17.322;2024-02-14T00:42:28;101118.03;;;3.40;100.00
64521;BME280;50896;46.714;17.322;2024-02-14T00:44:55;101120.47;;;3.44;100.00
64521;BME280;50896;46.714;17.322;2024-02-14T00:47:22;101119.59;;;3.43;100.00
64521;BME280;50896;46.714;17.322;2024-02-14T00:49:49;101124.03;;;3.42;100.00
64521;BME280;50896;46.714;17.322;2024-02-14T00:52:16;101119.25;;;3.35;100.00
64521;BME280;50896;46.714;17.322;2024-02-14T00:54:43;101125.38;;;3.35;100.00
64521;BME280;50896;46.714;17.322;2024-02-14T00:57:10;101132.69;;;3.30;100.00
64521;BME280;50896;46.714;17.322;2024-02-14T00:59:38;101127.53;;;3.29;100.00
64521;BME280;50896;46.714;17.322;2024-02-14T01:02:05;101125.38;;;3.35;100.00
64521;BME280;50896;46.714;17.322;2024-02-14T01:04:32;101106.63;;;3.27;100.00
64521;BME280;50896;46.714;17.322;2024-02-14T01:06:59;101127.13;;;3.35;100.00
64521;BME280;50896;46.714;17.322;2024-02-14T01:09:26;101121.16;;;3.33;100.00
64521;BME280;50896;46.714;17.322;2024-02-14T01:11:54;101132.78;;;3.29;100.00
64521;BME280;50896;46.714;17.322;2024-02-14T01:14:20;101129.72;;;3.22;100.00
64521;BME280;50896;46.714;17.322;2024-02-14T01:16:49;101124.09;;;3.14;100.00
64521;BME280;50896;46.714;17.322;2024-02-14T01:19:16;101128.41;;;3.15;100.00
64521;BME280;50896;46.714;17.322;2024-02-14T01:21:46;101118.09;;;3.12;100.00
64521;BME280;50896;46.714;17.322;2024-02-14T01:24:16;101115.47;;;2.97;100.00
64521;BME280;50896;46.714;17.322;2024-02-14T01:26:43;101117.84;;;3.02;100.00
64521;BME280;50896;46.714;17.322;2024-02-14T01:29:10;101112.41;;;2.90;100.00
64521;BME280;50896;46.714;17.322;2024-02-14T01:31:37;101112.88;;;2.83;100.00
64521;BME280;50896;46.714;17.322;2024-02-14T01:34:03;101116.09;;;2.73;100.00
64521;BME280;50896;46.714;17.322;2024-02-14T01:36:31;101125.53;;;2.62;100.00
64521;BME280;50896;46.714;17.322;2024-02-14T01:38:58;101130.69;;;2.49;100.00
64521;BME280;50896;46.714;17.322;2024-02-14T01:41:25;101129.28;;;2.43;100.00
64521;BME280;50896;46.714;17.322;2024-02-14T01:43:52;101129.91;;;2.32;100.00
64521;BME280;50896;46.714;17.322;2024-02-14T01:46:19;101128.41;;;2.28;100.00
64521;BME280;50896;46.714;17.322;2024-02-14T01:48:46;101134.78;;;2.24;100.00
64521;BME280;50896;46.714;17.322;2024-02-14T01:51:14;101145.09;;;2.27;100.00
64521;BME280;50896;46.714;17.322;2024-02-14T01:53:44;101134.25;;;2.33;100.00
64521;BME280;50896;46.714;17.322;2024-02-14T01:56:12;101138.72;;;2.31;100.00
64521;BME280;50896;46.714;17.322;2024-02-14T01:58:39;101142.31;;;2.30;100.00
64521;BME280;50896;46.714;17.322;2024-02-14T02:01:06;101139.75;;;2.29;100.00
64521;BME280;50896;46.714;17.322;2024-02-14T02:03:33;101140.03;;;2.24;100.00
64521;BME280;50896;46.714;17.322;2024-02-14T02:06:05;101127.75;;;2.25;100.00
64521;BME280;50896;46.714;17.322;2024-02-14T02:08:32;101135.25;;;2.16;100.00
64521;BME280;50896;46.714;17.322;2024-02-14T02:10:59;101114.97;;;2.04;100.00
64521;BME280;50896;46.714;17.322;2024-02-14T02:13:26;101129.09;;;2.01;100.00
64521;BME280;50896;46.714;17.322;2024-02-14T02:15:54;101134.69;;;1.95;100.00
64521;BME280;50896;46.714;17.322;2024-02-14T02:18:21;101126.88;;;1.79;100.00
64521;BME280;50896;46.714;17.322;2024-02-14T02:20:48;101136.03;;;1.72;100.00
64521;BME280;50896;46.714;17.322;2024-02-14T02:23:16;101131.03;;;1.67;100.00
64521;BME280;50896;46.714;17.322;2024-02-14T02:25:43;101137.47;;;1.62;100.00
64521;BME280;50896;46.714;17.322;2024-02-14T02:28:10;101137.72;;;1.57;100.00
64521;BME280;50896;46.714;17.322;2024-02-14T02:30:37;101143.75;;;1.59;100.00
64521;BME280;50896;46.714;17.322;2024-02-14T02:33:04;101138.56;;;1.58;100.00
64521;BME280;50896;46.714;17.322;2024-02-14T02:35:33;101139.19;;;1.47;100.00
64521;BME280;50896;46.714;17.322;2024-02-14T02:38:01;101131.22;;;1.32;100.00
64521;BME280;50896;46.714;17.322;2024-02-14T02:40:28;101138.25;;;1.32;100.00
64521;BME280;50896;46.714;17.322;2024-02-14T02:42:55;101139.53;;;1.25;100.00
64521;BME280;50896;46.714;17.322;2024-02-14T02:45:22;101153.56;;;1.24;100.00
64521;BME280;50896;46.714;17.322;2024-02-14T02:47:49;101145.16;;;1.17;100.00
64521;BME280;50896;46.714;17.322;2024-02-14T02:50:19;101136.31;;;1.19;100.00
64521;BME280;50896;46.714;17.322;2024-02-14T02:52:47;101147.78;;;1.17;100.00
64521;BME280;50896;46.714;17.322;2024-02-14T02:55:15;101147.97;;;1.14;100.00
64521;BME280;50896;46.714;17.322;2024-02-14T02:57:44;101140.28;;;1.11;100.00
64521;BME280;50896;46.714;17.322;2024-02-14T03:00:13;101147.47;;;1.23;100.00
64521;BME280;50896;46.714;17.322;2024-02-14T03:02:40;101137.41;;;1.15;100.00
64521;BME280;50896;46.714;17.322;2024-02-14T03:05:12;101150.31;;;1.18;100.00
64521;BME280;50896;46.714;17.322;2024-02-14T03:07:46;101139.41;;;1.10;100.00
64521;BME280;50896;46.714;17.322;2024-02-14T03:10:15;101149.66;;;1.15;100.00
64521;BME280;50896;46.714;17.322;2024-02-14T03:12:48;101149.84;;;1.12;100.00
64521;BME280;50896;46.714;17.322;2024-02-14T03:15:16;101157.34;;;1.02;100.00
64521;BME280;50896;46.714;17.322;2024-02-14T03:17:44;101161.72;;;1.01;100.00
64521;BME280;50896;46.714;17.322;2024-02-14T03:20:12;101163.06;;;0.93;100.00
64521;BME280;50896;46.714;17.322;2024-02-14T03:22:44;101170.09;;;0.92;100.00
64521;BME280;50896;46.714;17.322;2024-02-14T03:25:17;101178.53;;;0.97;100.00
64521;BME280;50896;46.714;17.322;2024-02-14T03:27:44;101174.38;;;0.93;100.00
64521;BME280;50896;46.714;17.322;2024-02-14T03:30:17;101174.22;;;0.96;100.00
64521;BME280;50896;46.714;17.322;2024-02-14T03:32:45;101175.31;;;0.92;100.00
64521;BME280;50896;46.714;17.322;2024-02-14T03:35:13;101169.31;;;0.90;100.00
64521;BME280;50896;46.714;17.322;2024-02-14T03:37:41;101194.00;;;1.02;100.00
64521;BME280;50896;46.714;17.322;2024-02-14T03:40:08;101200.53;;;1.11;100.00
64521;BME280;50896;46.714;17.322;2024-02-14T03:42:36;101194.94;;;1.17;100.00
64521;BME280;50896;46.714;17.322;2024-02-14T03:45:07;101196.16;;;1.27;100.00
64521;BME280;50896;46.714;17.322;2024-02-14T03:47:34;101205.03;;;1.41;100.00
64521;BME280;50896;46.714;17.322;2024-02-14T03:50:01;101200.22;;;1.49;100.00
64521;BME280;50896;46.714;17.322;2024-02-14T03:52:31;101202.59;;;1.53;100.00
64521;BME280;50896;46.714;17.322;2024-02-14T03:55:01;101204.59;;;1.64;100.00
64521;BME280;50896;46.714;17.322;2024-02-14T03:57:28;101204.28;;;1.70;100.00
64521;BME280;50896;46.714;17.322;2024-02-14T04:00:00;101211.78;;;1.77;100.00
64521;BME280;50896;46.714;17.322;2024-02-14T04:02:38;101208.06;;;1.81;100.00
64521;BME280;50896;46.714;17.322;2024-02-14T04:05:07;101218.47;;;1.82;100.00
64521;BME280;50896;46.714;17.322;2024-02-14T04:07:35;101217.63;;;1.82;100.00
64521;BME280;50896;46.714;17.322;2024-02-14T04:10:04;101208.44;;;1.75;100.00
64521;BME280;50896;46.714;17.322;2024-02-14T04:12:32;101200.78;;;1.70;100.00
64521;BME280;50896;46.714;17.322;2024-02-14T04:14:59;101210.78;;;1.79;100.00
64521;BME280;50896;46.714;17.322;2024-02-14T04:17:26;101216.38;;;1.73;100.00
64521;BME280;50896;46.714;17.322;2024-02-14T04:19:53;101218.56;;;1.65;100.00
64521;BME280;50896;46.714;17.322;2024-02-14T04:22:20;101213.66;;;1.59;100.00
64521;BME280;50896;46.714;17.322;2024-02-14T04:24:47;101227.03;;;1.54;100.00
64521;BME280;50896;46.714;17.322;2024-02-14T04:27:14;101220.44;;;1.47;100.00
64521;BME280;50896;46.714;17.322;2024-02-14T04:29:45;101223.13;;;1.45;100.00
64521;BME280;50896;46.714;17.322;2024-02-14T04:32:14;101239.09;;;1.41;100.00
64521;BME280;50896;46.714;17.322;2024-02-14T04:34:41;101232.59;;;1.32;100.00
64521;BME280;50896;46.714;17.322;2024-02-14T04:37:10;101233.09;;;1.39;100.00
64521;BME280;50896;46.714;17.322;2024-02-14T04:39:40;101242.72;;;1.38;100.00
64521;BME280;50896;46.714;17.322;2024-02-14T04:42:07;101247.13;;;1.38;100.00
64521;BME280;50896;46.714;17.322;2024-02-14T04:44:34;101248.91;;;1.37;100.00
64521;BME280;50896;46.714;17.322;2024-02-14T04:47:01;101241.78;;;1.39;100.00
64521;BME280;50896;46.714;17.322;2024-02-14T04:49:28;101252.03;;;1.44;100.00
64521;BME280;50896;46.714;17.322;2024-02-14T04:51:58;101241.13;;;1.51;100.00
64521;BME280;50896;46.714;17.322;2024-02-14T04:54:25;101244.69;;;1.50;100.00
64521;BME280;50896;46.714;17.322;2024-02-14T04:56:53;101248.81;;;1.54;100.00
64521;BME280;50896;46.714;17.322;2024-02-14T04:59:25;101255.41;;;1.62;100.00
64521;BME280;50896;46.714;17.322;2024-02-14T05:01:52;101254.59;;;1.61;100.00
64521;BME280;50896;46.714;17.322;2024-02-14T05:04:20;101245.53;;;1.67;100.00
64521;BME280;50896;46.714;17.322;2024-02-14T05:06:48;101251.38;;;1.72;100.00
64521;BME280;50896;46.714;17.322;2024-02-14T05:09:17;101255.63;;;1.75;100.00
64521;BME280;50896;46.714;17.322;2024-02-14T05:11:44;101251.63;;;1.67;100.00
64521;BME280;50896;46.714;17.322;2024-02-14T05:14:11;101255.19;;;1.66;100.00
64521;BME280;50896;46.714;17.322;2024-02-14T05:16:38;101257.13;;;1.63;100.00
64521;BME280;50896;46.714;17.322;2024-02-14T05:19:05;101258.03;;;1.62;100.00
64521;BME280;50896;46.714;17.322;2024-02-14T05:21:32;101258.47;;;1.70;100.00
64521;BME280;50896;46.714;17.322;2024-02-14T05:23:59;101264.41;;;1.74;100.00
64521;BME280;50896;46.714;17.322;2024-02-14T05:26:26;101269.56;;;1.75;100.00
64521;BME280;50896;46.714;17.322;2024-02-14T05:28:53;101263.16;;;1.65;100.00
64521;BME280;50896;46.714;17.322;2024-02-14T05:31:20;101265.25;;;1.58;100.00
64521;BME280;50896;46.714;17.322;2024-02-14T05:33:47;101271.50;;;1.56;100.00
64521;BME280;50896;46.714;17.322;2024-02-14T05:36:14;101279.53;;;1.52;100.00
64521;BME280;50896;46.714;17.322;2024-02-14T05:38:41;101280.53;;;1.50;100.00
64521;BME280;50896;46.714;17.322;2024-02-14T05:41:08;101277.22;;;1.46;100.00
64521;BME280;50896;46.714;17.322;2024-02-14T05:43:34;101277.81;;;1.35;100.00
64521;BME280;50896;46.714;17.322;2024-02-14T05:46:01;101281.31;;;1.18;100.00
64521;BME280;50896;46.714;17.322;2024-02-14T05:48:28;101279.38;;;1.22;100.00
64521;BME280;50896;46.714;17.322;2024-02-14T05:50:55;101282.00;;;1.22;100.00
64521;BME280;50896;46.714;17.322;2024-02-14T05:53:22;101283.00;;;1.19;100.00
64521;BME280;50896;46.714;17.322;2024-02-14T05:55:50;101281.31;;;1.18;100.00
64521;BME280;50896;46.714;17.322;2024-02-14T05:58:17;101277.22;;;1.30;100.00
64521;BME280;50896;46.714;17.322;2024-02-14T06:00:44;101277.38;;;1.27;100.00
64521;BME280;50896;46.714;17.322;2024-02-14T06:03:11;101287.34;;;1.36;100.00
64521;BME280;50896;46.714;17.322;2024-02-14T06:05:38;101288.97;;;1.39;100.00
64521;BME280;50896;46.714;17.322;2024-02-14T06:08:05;101294.91;;;1.43;100.00
64521;BME280;50896;46.714;17.322;2024-02-14T06:10:32;101284.16;;;1.47;100.00
64521;BME280;50896;46.714;17.322;2024-02-14T06:13:01;101303.38;;;1.64;100.00
64521;BME280;50896;46.714;17.322;2024-02-14T06:15:28;101308.06;;;1.75;100.00
64521;BME280;50896;46.714;17.322;2024-02-14T06:17:54;101305.34;;;1.76;100.00
64521;BME280;50896;46.714;17.322;2024-02-14T06:20:21;101308.97;;;1.74;100.00
64521;BME280;50896;46.714;17.322;2024-02-14T06:22:49;101316.66;;;1.77;100.00
64521;BME280;50896;46.714;17.322;2024-02-14T06:25:29;101333.66;;;1.85;100.00
64521;BME280;50896;46.714;17.322;2024-02-14T06:27:56;101331.81;;;1.87;100.00
64521;BME280;50896;46.714;17.322;2024-02-14T06:30:23;101331.56;;;1.92;100.00
64521;BME280;50896;46.714;17.322;2024-02-14T06:32:55;101323.63;;;1.94;100.00
64521;BME280;50896;46.714;17.322;2024-02-14T06:35:23;101329.28;;;2.02;100.00
64521;BME280;50896;46.714;17.322;2024-02-14T06:37:50;101339.19;;;2.13;100.00
64521;BME280;50896;46.714;17.322;2024-02-14T06:40:28;101329.72;;;2.10;100.00
64521;BME280;50896;46.714;17.322;2024-02-14T06:42:56;101332.75;;;2.18;100.00
64521;BME280;50896;46.714;17.322;2024-02-14T06:45:29;101338.44;;;2.27;100.00
64521;BME280;50896;46.714;17.322;2024-02-14T06:47:56;101334.97;;;2.26;100.00
64521;BME280;50896;46.714;17.322;2024-02-14T06:50:23;101333.00;;;2.30;100.00
64521;BME280;50896;46.714;17.322;2024-02-14T06:52:52;101337.75;;;2.39;100.00
64521;BME280;50896;46.714;17.322;2024-02-14T06:55:20;101346.28;;;2.43;100.00
64521;BME280;50896;46.714;17.322;2024-02-14T06:57:47;101341.53;;;2.49;100.00
64521;BME280;50896;46.714;17.322;2024-02-14T07:00:14;101336.59;;;2.59;100.00
64521;BME280;50896;46.714;17.322;2024-02-14T07:02:41;101333.69;;;2.80;100.00
64521;BME280;50896;46.714;17.322;2024-02-14T07:05:10;101335.09;;;2.85;100.00
64521;BME280;50896;46.714;17.322;2024-02-14T07:07:40;101335.41;;;2.95;100.00
64521;BME280;50896;46.714;17.322;2024-02-14T07:10:07;101321.59;;;2.91;100.00
64521;BME280;50896;46.714;17.322;2024-02-14T07:12:34;101346.88;;;3.08;100.00
64521;BME280;50896;46.714;17.322;2024-02-14T07:15:04;101349.91;;;3.17;100.00
64521;BME280;50896;46.714;17.322;2024-02-14T07:17:31;101343.06;;;3.14;100.00
64521;BME280;50896;46.714;17.322;2024-02-14T07:20:00;101343.69;;;3.18;100.00
64521;BME280;50896;46.714;17.322;2024-02-14T07:22:27;101347.28;;;3.31;100.00
64521;BME280;50896;46.714;17.322;2024-02-14T07:24:54;101348.91;;;3.34;100.00
64521;BME280;50896;46.714;17.322;2024-02-14T07:27:20;101354.16;;;3.34;100.00
64521;BME280;50896;46.714;17.322;2024-02-14T07:29:48;101351.63;;;3.32;100.00
64521;BME280;50896;46.714;17.322;2024-02-14T07:32:15;101354.69;;;3.39;100.00
64521;BME280;50896;46.714;17.322;2024-02-14T07:34:45;101354.06;;;3.50;100.00
64521;BME280;50896;46.714;17.322;2024-02-14T07:37:12;101360.91;;;3.52;100.00
64521;BME280;50896;46.714;17.322;2024-02-14T07:39:41;101361.19;;;3.62;100.00
64521;BME280;50896;46.714;17.322;2024-02-14T07:42:08;101357.34;;;3.68;100.00
64521;BME280;50896;46.714;17.322;2024-02-14T07:44:35;101359.41;;;3.77;100.00
64521;BME280;50896;46.714;17.322;2024-02-14T07:47:02;101356.19;;;3.86;100.00
64521;BME280;50896;46.714;17.322;2024-02-14T07:49:31;101356.75;;;3.91;100.00
64521;BME280;50896;46.714;17.322;2024-02-14T07:51:58;101354.41;;;4.01;100.00
64521;BME280;50896;46.714;17.322;2024-02-14T07:54:25;101362.38;;;4.14;100.00
64521;BME280;50896;46.714;17.322;2024-02-14T07:56:52;101360.19;;;4.21;100.00
64521;BME280;50896;46.714;17.322;2024-02-14T07:59:19;101358.66;;;4.31;100.00
64521;BME280;50896;46.714;17.322;2024-02-14T08:01:47;101357.13;;;4.41;100.00
64521;BME280;50896;46.714;17.322;2024-02-14T08:04:15;101351.44;;;4.48;100.00
64521;BME280;50896;46.714;17.322;2024-02-14T08:06:45;101357.84;;;4.58;100.00
64521;BME280;50896;46.714;17.322;2024-02-14T08:09:12;101355.53;;;4.66;100.00
64521;BME280;50896;46.714;17.322;2024-02-14T08:11:39;101350.78;;;4.71;100.00
64521;BME280;50896;46.714;17.322;2024-02-14T08:14:06;101354.63;;;4.80;100.00
64521;BME280;50896;46.714;17.322;2024-02-14T08:16:33;101346.00;;;4.91;100.00
64521;BME280;50896;46.714;17.322;2024-02-14T08:19:02;101359.63;;;5.10;100.00
64521;BME280;50896;46.714;17.322;2024-02-14T08:21:29;101365.13;;;5.20;100.00
64521;BME280;50896;46.714;17.322;2024-02-14T08:23:58;101356.47;;;5.31;100.00
64521;BME280;50896;46.714;17.322;2024-02-14T08:26:27;101359.88;;;5.46;100.00
64521;BME280;50896;46.714;17.322;2024-02-14T08:28:55;101358.06;;;5.59;100.00
64521;BME280;50896;46.714;17.322;2024-02-14T08:31:22;101356.47;;;5.70;100.00
64521;BME280;50896;46.714;17.322;2024-02-14T08:33:49;101354.97;;;5.78;100.00
64521;BME280;50896;46.714;17.322;2024-02-14T08:36:17;101356.75;;;5.91;100.00
64521;BME280;50896;46.714;17.322;2024-02-14T08:38:46;101367.19;;;6.05;100.00
64521;BME280;50896;46.714;17.322;2024-02-14T08:41:13;101364.50;;;6.18;100.00
64521;BME280;50896;46.714;17.322;2024-02-14T08:43:40;101360.38;;;6.27;100.00
64521;BME280;50896;46.714;17.322;2024-02-14T08:46:12;101359.59;;;6.38;100.00
64521;BME280;50896;46.714;17.322;2024-02-14T08:48:39;101350.78;;;6.50;100.00
64521;BME280;50896;46.714;17.322;2024-02-14T08:51:15;101356.22;;;6.60;100.00
64521;BME280;50896;46.714;17.322;2024-02-14T08:53:44;101357.72;;;6.75;100.00
64521;BME280;50896;46.714;17.322;2024-02-14T08:56:12;101353.44;;;6.86;100.00
64521;BME280;50896;46.714;17.322;2024-02-14T08:58:39;101346.72;;;6.81;100.00
64521;BME280;50896;46.714;17.322;2024-02-14T09:01:06;101351.19;;;6.92;100.00
64521;BME280;50896;46.714;17.322;2024-02-14T09:03:44;101357.34;;;7.04;100.00
64521;BME280;50896;46.714;17.322;2024-02-14T09:06:17;101345.94;;;7.04;100.00
64521;BME280;50896;46.714;17.322;2024-02-14T09:08:48;101348.47;;;7.16;100.00
64521;BME280;50896;46.714;17.322;2024-02-14T09:11:15;101342.72;;;7.23;100.00
64521;BME280;50896;46.714;17.322;2024-02-14T09:13:42;101344.16;;;7.38;100.00
64521;BME280;50896;46.714;17.322;2024-02-14T09:16:09;101346.38;;;7.44;100.00
64521;BME280;50896;46.714;17.322;2024-02-14T09:18:40;101345.88;;;7.62;100.00
64521;BME280;50896;46.714;17.322;2024-02-14T09:21:07;101341.31;;;7.64;100.00
64521;BME280;50896;46.714;17.322;2024-02-14T09:23:35;101346.00;;;7.72;100.00
64521;BME280;50896;46.714;17.322;2024-02-14T09:26:06;101348.16;;;7.78;100.00
64521;BME280;50896;46.714;17.322;2024-02-14T09:28:33;101354.28;;;7.90;100.00
64521;BME280;50896;46.714;17.322;2024-02-14T09:31:01;101354.53;;;7.98;100.00
64521;BME280;50896;46.714;17.322;2024-02-14T09:33:30;101360.53;;;8.11;100.00
64521;BME280;50896;46.714;17.322;2024-02-14T09:35:58;101356.03;;;8.23;100.00
64521;BME280;50896;46.714;17.322;2024-02-14T09:38:25;101353.25;;;8.36;100.00
64521;BME280;50896;46.714;17.322;2024-02-14T09:40:53;101359.16;;;8.28;100.00
64521;BME280;50896;46.714;17.322;2024-02-14T09:45:50;101343.91;;;8.20;100.00
64521;BME280;50896;46.714;17.322;2024-02-14T09:48:18;101349.88;;;8.34;100.00
64521;BME280;50896;46.714;17.322;2024-02-14T09:50:48;101347.44;;;8.42;100.00
64521;BME280;50896;46.714;17.322;2024-02-14T09:53:15;101350.84;;;8.44;100.00
64521;BME280;50896;46.714;17.322;2024-02-14T09:55:46;101347.22;;;8.45;100.00
64521;BME280;50896;46.714;17.322;2024-02-14T09:58:13;101347.09;;;8.47;100.00
64521;BME280;50896;46.714;17.322;2024-02-14T10:00:39;101340.44;;;8.64;100.00
64521;BME280;50896;46.714;17.322;2024-02-14T10:03:08;101341.28;;;8.85;100.00
64521;BME280;50896;46.714;17.322;2024-02-14T10:05:35;101336.63;;;8.99;100.00
64521;BME280;50896;46.714;17.322;2024-02-14T10:08:03;101330.03;;;9.14;100.00
64521;BME280;50896;46.714;17.322;2024-02-14T10:10:32;101338.47;;;9.29;100.00
64521;BME280;50896;46.714;17.322;2024-02-14T10:13:05;101339.34;;;9.30;100.00
64521;BME280;50896;46.714;17.322;2024-02-14T10:15:33;101340.72;;;9.24;100.00
64521;BME280;50896;46.714;17.322;2024-02-14T10:18:01;101324.50;;;9.27;100.00
64521;BME280;50896;46.714;17.322;2024-02-14T10:20:30;101328.84;;;9.28;100.00
64521;BME280;50896;46.714;17.322;2024-02-14T10:23:01;101326.13;;;9.39;100.00
64521;BME280;50896;46.714;17.322;2024-02-14T10:25:31;101321.91;;;9.37;100.00
64521;BME280;50896;46.714;17.322;2024-02-14T10:28:03;101315.41;;;9.51;100.00
64521;BME280;50896;46.714;17.322;2024-02-14T10:30:30;101312.06;;;9.58;100.00
64521;BME280;50896;46.714;17.322;2024-02-14T10:32:58;101309.22;;;9.71;100.00
64521;BME280;50896;46.714;17.322;2024-02-14T10:35:39;101309.41;;;9.89;100.00
64521;BME280;50896;46.714;17.322;2024-02-14T10:38:09;101308.66;;;9.78;100.00
64521;BME280;50896;46.714;17.322;2024-02-14T10:40:36;101309.69;;;9.55;100.00
64521;BME280;50896;46.714;17.322;2024-02-14T10:43:06;101312.72;;;9.41;100.00
64521;BME280;50896;46.714;17.322;2024-02-14T10:45:36;101308.66;;;9.37;100.00
64521;BME280;50896;46.714;17.322;2024-02-14T10:48:11;101302.09;;;9.41;100.00
64521;BME280;50896;46.714;17.322;2024-02-14T10:50:41;101294.59;;;9.46;100.00
64521;BME280;50896;46.714;17.322;2024-02-14T10:53:14;101288.72;;;9.52;100.00
64521;BME280;50896;46.714;17.322;2024-02-14T10:55:46;101287.56;;;9.76;100.00
64521;BME280;50896;46.714;17.322;2024-02-14T10:58:16;101276.00;;;10.06;100.00
64521;BME280;50896;46.714;17.322;2024-02-14T11:00:44;101279.22;;;10.30;100.00
64521;BME280;50896;46.714;17.322;2024-02-14T11:03:12;101287.53;;;10.46;100.00
64521;BME280;50896;46.714;17.322;2024-02-14T11:05:45;101281.06;;;10.29;96.42
64521;BME280;50896;46.714;17.322;2024-02-14T11:08:19;101274.34;;;10.15;98.80
64521;BME280;50896;46.714;17.322;2024-02-14T11:10:54;101280.75;;;10.03;100.00
64521;BME280;50896;46.714;17.322;2024-02-14T11:13:29;101278.66;;;10.06;100.00
64521;BME280;50896;46.714;17.322;2024-02-14T11:16:02;101263.03;;;10.13;100.00
64521;BME280;50896;46.714;17.322;2024-02-14T11:18:29;101257.72;;;10.23;100.00
64521;BME280;50896;46.714;17.322;2024-02-14T11:20:57;101263.72;;;10.64;100.00
64521;BME280;50896;46.714;17.322;2024-02-14T11:23:25;101262.16;;;10.81;92.00
64521;BME280;50896;46.714;17.322;2024-02-14T11:26:00;101248.69;;;10.92;85.45
64521;BME280;50896;46.714;17.322;2024-02-14T11:28:29;101262.94;;;11.11;77.31
64521;BME280;50896;46.714;17.322;2024-02-14T11:31:01;101258.13;;;11.24;72.27
64521;BME280;50896;46.714;17.322;2024-02-14T11:33:32;101246.34;;;11.55;70.93
64521;BME280;50896;46.714;17.322;2024-02-14T11:36:07;101247.00;;;11.67;67.25
64521;BME280;50896;46.714;17.322;2024-02-14T11:38:40;101242.50;;;11.39;68.73
64521;BME280;50896;46.714;17.322;2024-02-14T11:41:10;101247.94;;;11.10;68.38
64521;BME280;50896;46.714;17.322;2024-02-14T11:43:37;101238.66;;;10.76;72.31
64521;BME280;50896;46.714;17.322;2024-02-14T11:46:06;101236.03;;;10.57;75.54
64521;BME280;50896;46.714;17.322;2024-02-14T11:48:33;101239.38;;;10.59;78.58
64521;BME280;50896;46.714;17.322;2024-02-14T11:51:00;101231.13;;;10.62;79.52
64521;BME280;50896;46.714;17.322;2024-02-14T11:53:28;101225.53;;;10.55;78.52
64521;BME280;50896;46.714;17.322;2024-02-14T11:55:55;101231.13;;;10.62;78.44
64521;BME280;50896;46.714;17.322;2024-02-14T11:58:23;101226.81;;;10.51;76.61
64521;BME280;50896;46.714;17.322;2024-02-14T12:00:49;101231.25;;;10.70;76.52
64521;BME280;50896;46.714;17.322;2024-02-14T12:03:18;101234.00;;;10.88;73.51
64521;BME280;50896;46.714;17.322;2024-02-14T12:05:55;101224.16;;;11.08;72.97
64521;BME280;50896;46.714;17.322;2024-02-14T12:08:23;101209.88;;;11.09;68.16
64521;BME280;50896;46.714;17.322;2024-02-14T12:10:50;101208.97;;;11.19;69.03
64521;BME280;50896;46.714;17.322;2024-02-14T12:13:20;101210.81;;;11.46;66.40
64521;BME280;50896;46.714;17.322;2024-02-14T12:15:48;101214.28;;;11.74;64.68
64521;BME280;50896;46.714;17.322;2024-02-14T12:18:17;101203.94;;;11.89;64.69
64521;BME280;50896;46.714;17.322;2024-02-14T12:20:47;101201.59;;;12.22;60.56
64521;BME280;50896;46.714;17.322;2024-02-14T12:23:22;101194.44;;;12.41;61.20
64521;BME280;50896;46.714;17.322;2024-02-14T12:25:50;101199.47;;;12.26;60.45
64521;BME280;50896;46.714;17.322;2024-02-14T12:28:17;101198.34;;;12.10;61.61
64521;BME280;50896;46.714;17.322;2024-02-14T12:30:46;101202.38;;;11.96;61.18
64521;BME280;50896;46.714;17.322;2024-02-14T12:33:13;101207.22;;;11.55;63.15
64521;BME280;50896;46.714;17.322;2024-02-14T12:35:42;101197.50;;;11.46;68.41
64521;BME280;50896;46.714;17.322;2024-02-14T12:38:12;101196.13;;;11.42;68.40
64521;BME280;50896;46.714;17.322;2024-02-14T12:40:40;101187.72;;;11.37;71.13
64521;BME280;50896;46.714;17.322;2024-02-14T12:43:12;101187.88;;;11.35;73.68
64521;BME280;50896;46.714;17.322;2024-02-14T12:45:40;101181.03;;;11.33;71.70
64521;BME280;50896;46.714;17.322;2024-02-14T12:48:08;101182.66;;;11.16;68.97